createdAt,value
2022-08-22T00:01:15.299Z,8.35
2022-08-22T00:02:48.773Z,5.35
2022-08-22T00:03:03.074Z,4.80
2022-08-22T00:04:36.590Z,7.18
2022-08-22T00:14:10.026Z,6.63
2022-08-22T00:17:03.763Z,6.30
2022-08-22T00:19:56.167Z,7.40
2022-08-22T00:32:05.567Z,7.28
2022-08-22T00:34:43.052Z,7.72
2022-08-22T00:37:35.770Z,7.25
2022-08-22T00:40:42.474Z,6.97
2022-08-22T00:43:52.477Z,7.15
2022-08-22T00:47:00.688Z,7.47
2022-08-22T00:49:55.061Z,7.38
2022-08-22T00:55:43.441Z,7.63
2022-08-22T00:59:23.342Z,6.72
2022-08-22T01:02:02.452Z,6.85
2022-08-22T01:52:35.141Z,7.35
2022-08-22T02:23:22.227Z,6.50
2022-08-22T02:25:56.406Z,7.00
2022-08-22T02:28:57.983Z,6.97
2022-08-22T02:31:54.314Z,7.07
2022-08-22T02:38:15.977Z,7.85
2022-08-22T02:41:38.176Z,7.10
2022-08-22T02:47:26.898Z,7.15
2022-08-22T02:50:41.389Z,7.38
2022-08-22T02:53:20.043Z,7.18
2022-08-22T02:56:14.651Z,7.63
2022-08-22T02:59:18.981Z,7.50
2022-08-22T03:01:47.569Z,7.75
2022-08-22T03:04:53.022Z,7.80
2022-08-22T03:07:34.987Z,6.93
2022-08-22T03:10:23.051Z,7.72
2022-08-22T03:13:00.927Z,7.13
2022-08-22T03:15:53.071Z,8.38
2022-08-22T03:18:48.838Z,8.35
2022-08-22T03:22:20.281Z,7.88
2022-08-22T03:25:10.081Z,7.68
2022-08-22T03:28:20.078Z,8.35
2022-08-22T03:31:09.776Z,8.05
2022-08-22T03:33:38.337Z,9.13
2022-08-22T03:36:26.099Z,8.68
2022-08-22T03:39:17.778Z,9.05
2022-08-22T03:42:10.265Z,8.52
2022-08-22T03:45:09.493Z,9.05
2022-08-22T03:48:17.435Z,8.55
2022-08-22T04:13:43.388Z,8.48
2022-08-22T04:16:44.718Z,8.90
2022-08-22T04:19:45.594Z,8.95
2022-08-22T04:22:27.170Z,9.32
2022-08-22T04:25:23.941Z,8.90
2022-08-22T04:28:19.448Z,8.95
2022-08-22T04:30:54.025Z,8.60
2022-08-22T04:33:30.469Z,8.85
2022-08-22T04:36:05.518Z,9.05
2022-08-22T04:39:09.013Z,9.63
2022-08-22T04:42:16.296Z,9.05
2022-08-22T04:45:05.886Z,8.60
2022-08-22T04:48:04.759Z,9.07
2022-08-22T04:50:43.320Z,8.82
2022-08-22T04:54:08.597Z,8.90
2022-08-22T04:57:12.756Z,8.80
2022-08-22T04:59:39.601Z,8.75
2022-08-22T05:02:10.823Z,8.38
2022-08-22T05:04:49.847Z,8.85
2022-08-22T05:07:34.689Z,8.85
2022-08-22T05:10:12.809Z,8.80
2022-08-22T05:12:57.799Z,9.23
2022-08-22T05:15:33.315Z,8.80
2022-08-22T05:18:06.518Z,8.52
2022-08-22T05:20:35.171Z,9.52
2022-08-22T05:23:17.069Z,7.82
2022-08-22T05:25:49.285Z,9.30
2022-08-22T05:28:32.280Z,9.60
2022-08-22T05:31:00.257Z,8.27
2022-08-22T05:33:42.933Z,8.27
2022-08-22T05:36:15.088Z,10.80
2022-08-22T05:38:48.660Z,8.75
2022-08-22T05:41:24.534Z,8.77
2022-08-22T05:43:53.653Z,9.80
2022-08-22T05:46:43.890Z,9.68
2022-08-22T05:49:39.636Z,8.57
2022-08-22T05:52:35.262Z,8.43
2022-08-22T05:55:29.175Z,8.95
2022-08-22T05:58:19.712Z,9.50
2022-08-22T06:00:53.492Z,8.98
2022-08-22T06:03:34.542Z,8.23
2022-08-22T06:06:11.561Z,8.38
2022-08-22T06:08:44.072Z,8.93
2022-08-22T06:11:22.329Z,8.57
2022-08-22T06:14:02.980Z,8.80
2022-08-22T06:16:56.584Z,8.65
2022-08-22T06:19:24.331Z,8.35
2022-08-22T06:21:54.452Z,8.52
2022-08-22T06:24:26.376Z,8.57
2022-08-22T06:26:57.629Z,9.65
2022-08-22T06:29:38.428Z,9.13
2022-08-22T06:32:58.167Z,8.18
2022-08-22T06:36:00.159Z,9.68
2022-08-22T06:38:32.396Z,8.13
2022-08-22T06:41:03.123Z,9.27
2022-08-22T06:43:38.635Z,8.35
2022-08-22T06:46:07.455Z,8.40
2022-08-22T06:48:37.303Z,8.50
2022-08-22T06:51:06.995Z,8.77
2022-08-22T06:53:39.576Z,7.70
2022-08-22T06:56:18.528Z,8.23
2022-08-22T06:58:47.773Z,8.68
2022-08-22T07:01:37.275Z,8.07
2022-08-22T07:04:14.075Z,8.65
2022-08-22T07:06:45.426Z,8.57
2022-08-22T07:09:24.112Z,8.75
2022-08-22T07:11:53.532Z,8.23
2022-08-22T07:14:29.638Z,8.65
2022-08-22T07:17:00.963Z,8.10
2022-08-22T07:19:35.483Z,9.15
2022-08-22T07:22:11.250Z,7.90
2022-08-22T07:24:46.683Z,7.75
2022-08-22T07:27:49.169Z,7.68
2022-08-22T07:30:27.378Z,7.88
2022-08-22T07:33:26.048Z,6.82
2022-08-22T07:36:29.592Z,6.82
2022-08-22T07:39:22.737Z,6.60
2022-08-22T07:42:30.080Z,7.18
2022-08-22T07:45:08.360Z,6.50
2022-08-22T07:48:25.823Z,7.28
2022-08-22T07:51:13.708Z,6.05
2022-08-22T07:53:59.086Z,6.22
2022-08-22T07:56:36.480Z,6.65
2022-08-22T07:59:12.699Z,6.50
2022-08-22T08:01:48.444Z,6.40
2022-08-22T08:04:24.717Z,5.80
2022-08-22T08:06:54.973Z,5.65
2022-08-22T08:09:22.137Z,6.20
2022-08-22T08:11:53.381Z,6.85
2022-08-22T08:14:23.501Z,5.93
2022-08-22T08:17:18.684Z,4.97
2022-08-22T08:19:47.278Z,5.45
2022-08-22T08:22:24.452Z,5.32
2022-08-22T08:24:53.889Z,5.53
2022-08-22T08:27:42.219Z,5.32
2022-08-22T08:30:15.794Z,4.97
2022-08-22T08:32:47.607Z,5.68
2022-08-22T08:35:42.324Z,5.28
2022-08-22T08:38:35.964Z,5.07
2022-08-22T08:41:31.936Z,4.57
2022-08-22T08:44:49.667Z,4.43
2022-08-22T08:47:39.771Z,4.75
2022-08-22T08:50:51.356Z,4.90
2022-08-22T08:53:59.900Z,5.10
2022-08-22T08:57:04.079Z,5.13
2022-08-22T09:00:08.128Z,6.05
2022-08-22T09:03:12.087Z,5.25
2022-08-22T09:06:16.804Z,5.22
2022-08-22T09:09:31.860Z,6.18
2022-08-22T09:12:38.112Z,6.22
2022-08-22T09:15:28.029Z,6.68
2022-08-22T09:18:33.348Z,6.30
2022-08-22T09:21:16.560Z,6.43
2022-08-22T09:24:47.039Z,6.55
2022-08-22T09:27:21.798Z,5.95
2022-08-22T09:29:59.950Z,5.05
2022-08-22T09:32:57.591Z,6.55
2022-08-22T09:35:42.364Z,7.03
2022-08-22T09:38:48.290Z,7.30
2022-08-22T09:41:44.723Z,6.55
2022-08-22T09:44:39.659Z,7.18
2022-08-22T09:47:31.272Z,6.80
2022-08-22T09:50:13.716Z,6.88
2022-08-22T09:53:10.802Z,7.15
2022-08-22T09:56:11.476Z,6.72
2022-08-22T09:59:00.909Z,6.40
2022-08-22T10:01:34.300Z,7.25
2022-08-22T10:04:39.337Z,6.78
2022-08-22T10:07:35.243Z,6.97
2022-08-22T10:10:29.058Z,7.35
2022-08-22T10:13:10.734Z,6.72
2022-08-22T10:15:46.107Z,7.22
2022-08-22T10:18:52.803Z,6.00
2022-08-22T10:22:02.471Z,6.85
2022-08-22T10:24:47.715Z,5.50
2022-08-22T10:27:39.702Z,5.20
2022-08-22T10:30:17.870Z,5.80
2022-08-22T10:33:07.208Z,4.65
2022-08-22T10:35:45.840Z,4.88
2022-08-22T10:38:51.976Z,4.47
2022-08-22T10:41:57.961Z,3.90
2022-08-22T10:44:38.614Z,4.20
2022-08-22T10:47:19.155Z,3.70
2022-08-22T10:50:10.856Z,4.70
2022-08-22T10:52:48.503Z,5.30
2022-08-22T10:55:22.164Z,4.63
2022-08-22T10:58:12.742Z,4.97
2022-08-22T11:00:58.229Z,4.68
2022-08-22T11:03:51.750Z,3.83
2022-08-22T11:06:41.511Z,4.40
2022-08-22T11:09:39.880Z,4.40
2022-08-22T11:12:41.558Z,5.00
2022-08-22T11:15:51.244Z,5.30
2022-08-22T11:19:16.727Z,4.80
2022-08-22T11:22:00.190Z,5.20
2022-08-22T11:25:08.983Z,4.80
2022-08-22T11:28:11.746Z,4.32
2022-08-22T11:30:53.653Z,4.75
2022-08-22T11:34:06.618Z,4.60
2022-08-22T11:39:41.597Z,4.13
2022-08-22T11:42:33.662Z,3.88
2022-08-22T11:45:05.043Z,3.72
2022-08-22T11:50:37.818Z,2.15
2022-08-22T11:53:42.053Z,2.65
2022-08-22T11:56:33.465Z,2.60
2022-08-22T11:59:16.202Z,2.22
2022-08-22T12:04:44.211Z,3.00
2022-08-22T12:07:18.458Z,3.13
2022-08-22T12:10:19.638Z,3.78
2022-08-22T12:13:13.236Z,2.63
2022-08-22T12:15:54.166Z,3.08
2022-08-22T12:18:53.869Z,4.18
2022-08-22T12:21:42.399Z,3.00
2022-08-22T12:24:54.369Z,3.40
2022-08-22T12:27:58.142Z,3.50
2022-08-22T12:31:07.150Z,3.13
2022-08-22T12:34:11.757Z,3.20
2022-08-22T12:37:29.423Z,3.13
2022-08-22T12:41:07.919Z,3.47
2022-08-22T13:20:27.643Z,1.85
2022-08-22T13:22:56.036Z,1.55
2022-08-22T13:25:30.227Z,1.98
2022-08-22T13:28:01.302Z,2.10
2022-08-22T13:30:37.522Z,1.92
2022-08-22T13:33:08.635Z,2.78
2022-08-22T13:35:51.977Z,2.20
2022-08-22T13:38:34.084Z,2.72
2022-08-22T13:41:03.384Z,2.40
2022-08-22T13:43:55.119Z,2.35
2022-08-22T13:46:28.128Z,3.00
2022-08-22T13:49:00.802Z,2.65
2022-08-22T13:52:08.307Z,2.80
2022-08-22T13:55:12.488Z,2.85
2022-08-22T13:57:54.375Z,2.58
2022-08-22T14:00:59.014Z,3.05
2022-08-22T14:03:37.249Z,2.17
2022-08-22T14:06:37.374Z,2.53
2022-08-22T14:09:31.202Z,2.42
2022-08-22T14:12:24.422Z,2.85
2022-08-22T14:15:02.452Z,2.15
2022-08-22T14:17:42.828Z,2.58
2022-08-22T14:20:31.954Z,3.05
2022-08-22T14:23:07.571Z,2.60
2022-08-22T14:25:40.042Z,2.50
2022-08-22T14:28:11.354Z,3.08
2022-08-22T14:31:01.009Z,2.88
2022-08-22T14:33:39.939Z,3.03
2022-08-22T14:36:17.970Z,3.20
2022-08-22T14:38:56.402Z,3.25
2022-08-22T14:41:52.771Z,3.63
2022-08-22T14:45:16.760Z,3.38
2022-08-22T14:47:55.320Z,3.47
2022-08-22T14:51:05.838Z,3.90
2022-08-22T14:53:38.069Z,3.10
2022-08-22T14:56:18.166Z,3.58
2022-08-22T14:58:56.665Z,3.47
2022-08-22T15:01:32.701Z,3.25
2022-08-22T15:04:16.511Z,3.00
2022-08-22T15:06:55.434Z,2.95
2022-08-22T15:09:41.856Z,3.60
2022-08-22T15:12:28.743Z,3.75
2022-08-22T15:15:01.744Z,3.42
2022-08-22T15:17:45.841Z,2.70
2022-08-22T15:20:38.241Z,2.30
2022-08-22T15:23:22.986Z,2.70
2022-08-22T15:26:06.990Z,3.17
2022-08-22T15:28:52.818Z,3.45
2022-08-22T15:31:21.171Z,2.80
2022-08-22T15:33:49.511Z,2.88
2022-08-22T15:36:22.500Z,2.95
2022-08-22T15:38:55.825Z,3.20
2022-08-22T15:41:37.247Z,2.40
2022-08-22T15:44:32.453Z,3.25
2022-08-22T15:47:10.888Z,3.17
2022-08-22T15:50:01.917Z,3.30
2022-08-22T15:52:35.598Z,3.50
2022-08-22T15:55:17.525Z,4.00
2022-08-22T15:58:09.945Z,4.28
2022-08-22T16:01:02.586Z,3.30
2022-08-22T16:03:33.237Z,4.07
2022-08-22T16:06:07.419Z,3.45
2022-08-22T16:08:55.326Z,3.42
2022-08-22T16:11:33.475Z,3.95
2022-08-22T16:14:22.040Z,3.60
2022-08-22T16:16:56.036Z,5.18
2022-08-22T16:19:25.403Z,3.88
2022-08-22T16:22:13.084Z,3.78
2022-08-22T16:25:01.111Z,3.35
2022-08-22T16:27:30.663Z,3.33
2022-08-22T16:30:06.857Z,4.32
2022-08-22T16:32:34.920Z,3.45
2022-08-22T16:35:01.683Z,3.80
2022-08-22T16:37:46.384Z,3.42
2022-08-22T16:40:19.706Z,3.40
2022-08-22T16:43:09.598Z,3.47
2022-08-22T16:45:40.913Z,3.17
2022-08-22T16:48:36.299Z,3.80
2022-08-22T16:51:11.402Z,3.28
2022-08-22T16:54:10.542Z,2.85
2022-08-22T16:57:07.704Z,3.15
2022-08-22T17:00:12.948Z,4.03
2022-08-22T17:03:06.817Z,3.45
2022-08-22T17:06:07.451Z,3.97
2022-08-22T17:09:19.965Z,4.15
2022-08-22T17:12:25.002Z,4.28
2022-08-22T17:15:28.567Z,4.05
2022-08-22T17:18:26.483Z,3.40
2022-08-22T17:21:25.849Z,3.78
2022-08-22T17:24:01.938Z,3.45
2022-08-22T17:27:15.662Z,3.60
2022-08-22T17:30:14.649Z,3.85
2022-08-22T17:33:09.666Z,4.18
2022-08-22T17:36:26.590Z,3.50
2022-08-22T17:39:47.146Z,3.42
2022-08-22T17:42:54.585Z,3.42
2022-08-22T17:48:48.270Z,3.80
2022-08-22T17:51:28.795Z,4.00
2022-08-22T17:54:37.610Z,4.13
2022-08-22T17:57:13.240Z,3.90
2022-08-22T17:59:55.057Z,3.58
2022-08-22T18:02:50.008Z,3.78
2022-08-22T18:05:28.250Z,3.90
2022-08-22T18:11:20.973Z,3.87
2022-08-22T18:14:28.795Z,3.50
2022-08-22T18:16:59.327Z,4.63
2022-08-22T18:20:07.327Z,4.07
2022-08-22T18:22:48.637Z,5.85
2022-08-22T18:25:17.737Z,4.60
2022-08-22T18:27:56.980Z,3.95
2022-08-22T18:30:29.438Z,4.38
2022-08-22T18:33:39.630Z,4.50
2022-08-22T18:36:14.727Z,4.32
2022-08-22T18:39:19.178Z,4.78
2022-08-22T18:41:52.886Z,5.95
2022-08-22T18:44:23.870Z,5.22
2022-08-22T18:47:01.294Z,5.25
2022-08-22T18:49:40.227Z,4.88
2022-08-22T18:52:20.031Z,4.35
2022-08-22T18:55:23.472Z,4.72
2022-08-22T18:58:39.953Z,3.83
2022-08-22T19:01:42.135Z,4.55
2022-08-22T19:05:02.790Z,3.92
2022-08-22T19:08:20.602Z,4.15
2022-08-22T19:11:35.096Z,4.72
2022-08-22T19:14:45.859Z,4.13
2022-08-22T19:17:58.869Z,4.38
2022-08-22T19:20:49.199Z,4.50
2022-08-22T19:23:55.425Z,4.15
2022-08-22T19:26:34.999Z,3.90
2022-08-22T19:29:07.684Z,3.88
2022-08-22T19:31:58.939Z,3.90
2022-08-22T19:34:25.450Z,4.47
2022-08-22T19:37:32.948Z,5.13
2022-08-22T19:40:11.469Z,4.10
2022-08-22T19:42:41.785Z,4.60
2022-08-22T19:45:28.964Z,4.68
2022-08-22T19:48:11.750Z,4.72
2022-08-22T19:50:41.382Z,4.85
2022-08-22T19:53:56.466Z,5.03
2022-08-22T19:56:35.606Z,4.95
2022-08-22T19:59:26.760Z,4.85
2022-08-22T20:02:06.778Z,5.32
2022-08-22T20:05:00.307Z,4.63
2022-08-22T20:07:50.174Z,4.88
2022-08-22T20:10:32.737Z,5.47
2022-08-22T20:16:16.813Z,5.70
2022-08-22T20:19:01.928Z,4.38
2022-08-22T20:21:59.899Z,4.47
2022-08-22T20:24:41.374Z,5.50
2022-08-22T20:27:28.921Z,5.18
2022-08-22T20:30:39.554Z,5.28
2022-08-22T20:33:21.325Z,5.53
2022-08-22T20:35:52.777Z,5.23
2022-08-22T20:38:32.397Z,5.05
2022-08-22T20:41:21.394Z,4.88
2022-08-22T20:44:15.769Z,5.28
2022-08-22T20:47:02.675Z,5.18
2022-08-22T20:49:52.865Z,5.43
2022-08-22T20:52:54.178Z,5.60
2022-08-22T20:55:27.272Z,5.78
2022-08-22T20:58:06.005Z,6.00
2022-08-22T21:00:42.277Z,5.68
2022-08-22T21:03:13.378Z,7.00
2022-08-22T21:05:43.500Z,5.75
2022-08-22T21:08:28.214Z,6.10
2022-08-22T21:11:20.120Z,6.43
2022-08-22T21:13:47.274Z,5.57
2022-08-22T21:16:17.033Z,5.88
2022-08-22T21:18:46.845Z,6.28
2022-08-22T21:21:22.643Z,6.85
2022-08-22T21:24:01.433Z,6.07
2022-08-22T21:26:30.747Z,6.15
2022-08-22T21:29:19.634Z,6.80
2022-08-22T21:32:25.291Z,5.00
2022-08-22T21:34:53.542Z,4.97
2022-08-22T21:37:36.594Z,4.47
2022-08-22T21:40:08.837Z,4.75
2022-08-22T21:42:45.036Z,4.35
2022-08-22T21:45:34.730Z,4.85
2022-08-22T21:48:02.250Z,4.85
2022-08-22T21:50:39.033Z,4.60
2022-08-22T21:53:10.361Z,4.80
2022-08-22T21:55:44.475Z,5.03
2022-08-22T21:58:38.710Z,4.97
2022-08-22T22:01:27.618Z,4.82
2022-08-22T22:03:55.069Z,4.97
2022-08-22T22:06:21.663Z,5.28
2022-08-22T22:08:48.990Z,5.20
2022-08-22T22:11:16.349Z,5.63
2022-08-22T22:13:43.809Z,5.07
2022-08-22T22:16:14.686Z,5.22
2022-08-22T22:18:41.401Z,5.10
2022-08-22T22:21:09.011Z,4.93
2022-08-22T22:23:35.732Z,5.03
2022-08-22T22:26:04.721Z,5.38
2022-08-22T22:28:34.513Z,5.57
2022-08-22T22:31:01.599Z,5.03
2022-08-22T22:33:33.399Z,5.50
2022-08-22T22:36:05.165Z,5.55
2022-08-22T22:38:32.256Z,5.65
2022-08-22T22:40:58.838Z,5.45
2022-08-22T22:43:25.901Z,5.75
2022-08-22T22:45:52.674Z,5.80
2022-08-22T22:48:24.485Z,4.82
2022-08-22T22:50:52.691Z,5.60
2022-08-22T22:53:21.383Z,5.18
2022-08-22T22:55:59.514Z,5.90
2022-08-22T22:58:27.883Z,4.97
2022-08-22T23:00:55.203Z,5.28
2022-08-22T23:03:22.085Z,4.50
2022-08-22T23:05:48.813Z,4.90
2022-08-22T23:08:15.653Z,5.15
2022-08-22T23:10:42.341Z,4.80
2022-08-22T23:13:09.248Z,4.80
2022-08-22T23:15:37.093Z,4.78
2022-08-22T23:18:03.883Z,4.93
2022-08-22T23:20:30.775Z,4.40
2022-08-22T23:22:57.549Z,4.75
2022-08-22T23:25:24.375Z,5.43
2022-08-22T23:27:52.285Z,5.10
2022-08-22T23:30:20.196Z,4.90
2022-08-22T23:32:47.032Z,4.35
2022-08-22T23:35:13.829Z,4.55
2022-08-22T23:37:40.523Z,4.32
2022-08-22T23:40:09.351Z,4.30
2022-08-22T23:42:36.125Z,4.28
2022-08-22T23:45:02.904Z,4.47
2022-08-22T23:47:29.553Z,3.47
2022-08-22T23:49:56.415Z,4.45
2022-08-22T23:52:23.066Z,4.25
2022-08-22T23:54:54.316Z,4.00
2022-08-22T23:57:27.434Z,4.50
2022-08-22T23:59:57.732Z,3.95
